createdAt,value
2022-11-13T00:00:17.695Z,1030.069719
2022-11-13T00:05:17.874Z,1030.144786
2022-11-13T00:10:17.718Z,1030.096246
2022-11-13T00:15:18.032Z,1030.041160
2022-11-13T00:20:18.014Z,1030.054795
2022-11-13T00:25:17.709Z,1029.962286
2022-11-13T00:30:19.430Z,1029.879933
2022-11-13T00:35:17.585Z,1029.830689
2022-11-13T00:40:17.854Z,1029.701638
2022-11-13T00:45:17.583Z,1029.746515
2022-11-13T00:50:17.634Z,1029.814328
2022-11-13T00:55:17.585Z,1029.758798
2022-11-13T01:05:17.629Z,1029.699981
2022-11-13T01:10:18.077Z,1029.648275
2022-11-13T01:15:17.538Z,1029.624629
2022-11-13T01:20:17.544Z,1029.535311
2022-11-13T01:25:17.766Z,1029.527539
2022-11-13T01:30:17.589Z,1029.495073
2022-11-13T01:35:17.614Z,1029.464056
2022-11-13T01:40:17.593Z,1029.437348
2022-11-13T01:45:17.547Z,1029.413848
2022-11-13T01:50:17.696Z,1029.418353
2022-11-13T01:55:17.514Z,1029.420299
2022-11-13T02:00:17.978Z,1029.459351
2022-11-13T02:05:17.734Z,1029.357329
2022-11-13T02:10:17.602Z,1029.342380
2022-11-13T02:15:18.096Z,1029.212576
2022-11-13T02:20:18.127Z,1029.203347
2022-11-13T02:25:17.558Z,1029.070192
2022-11-13T02:30:22.032Z,1029.047447
2022-11-13T02:35:17.808Z,1029.050489
2022-11-13T02:40:17.666Z,1029.003427
2022-11-13T02:45:18.091Z,1029.018358
2022-11-13T02:50:17.505Z,1029.040997
2022-11-13T02:55:17.911Z,1029.026102
2022-11-13T03:00:17.613Z,1028.942672
2022-11-13T03:05:17.915Z,1029.010601
2022-11-13T03:10:17.585Z,1029.024024
2022-11-13T03:15:17.634Z,1029.038840
2022-11-13T03:20:17.563Z,1029.043400
2022-11-13T03:25:17.598Z,1029.068171
2022-11-13T03:30:17.773Z,1029.030099
2022-11-13T03:35:17.575Z,1029.030546
2022-11-13T03:40:18.137Z,1029.114990
2022-11-13T03:45:17.468Z,1028.980674
2022-11-13T03:50:17.841Z,1028.926267
2022-11-13T03:55:18.150Z,1028.827508
2022-11-13T04:00:17.522Z,1028.706781
2022-11-13T04:05:22.619Z,1028.542733
2022-11-13T04:10:17.808Z,1028.551189
2022-11-13T04:15:18.292Z,1028.494960
2022-11-13T04:20:17.664Z,1028.441616
2022-11-13T04:25:17.718Z,1028.381819
2022-11-13T04:30:17.701Z,1028.318325
2022-11-13T04:35:17.516Z,1028.268995
2022-11-13T04:40:17.943Z,1028.287173
2022-11-13T04:45:17.480Z,1028.319142
2022-11-13T04:50:17.741Z,1028.318582
2022-11-13T04:55:17.645Z,1028.264492
2022-11-13T05:00:17.559Z,1028.212476
2022-11-13T05:05:17.779Z,1028.229418
2022-11-13T05:10:17.617Z,1028.280266
2022-11-13T05:15:17.786Z,1028.311568
2022-11-13T05:20:17.953Z,1028.270102
2022-11-13T05:25:17.948Z,1028.234029
2022-11-13T05:30:17.664Z,1028.198860
2022-11-13T05:35:17.564Z,1028.168114
2022-11-13T05:40:17.543Z,1028.096929
2022-11-13T05:45:17.769Z,1028.069828
2022-11-13T05:50:17.676Z,1028.070427
2022-11-13T05:55:22.206Z,1027.995983
2022-11-13T06:00:17.635Z,1027.952351
2022-11-13T06:05:17.968Z,1027.947573
2022-11-13T06:10:17.795Z,1027.927693
2022-11-13T06:15:17.468Z,1027.866076
2022-11-13T06:20:17.509Z,1027.874390
2022-11-13T06:25:17.546Z,1027.831865
2022-11-13T06:30:17.548Z,1027.849166
2022-11-13T06:35:17.461Z,1027.833642
2022-11-13T06:40:17.527Z,1027.775435
2022-11-13T06:45:17.556Z,1027.846839
2022-11-13T06:50:17.511Z,1027.873211
2022-11-13T06:55:17.491Z,1027.943186
2022-11-13T07:00:17.558Z,1028.033737
2022-11-13T07:05:17.668Z,1028.038264
2022-11-13T07:10:17.577Z,1028.020602
2022-11-13T07:15:17.518Z,1027.962098
2022-11-13T07:20:17.625Z,1027.899661
2022-11-13T07:25:17.499Z,1027.872635
2022-11-13T07:30:17.485Z,1027.861970
2022-11-13T07:35:17.644Z,1027.841714
2022-11-13T07:40:17.741Z,1027.880883
2022-11-13T07:45:17.478Z,1027.842520
2022-11-13T07:50:17.813Z,1027.812133
2022-11-13T07:55:17.795Z,1027.789518
2022-11-13T08:00:17.487Z,1027.843174
2022-11-13T08:05:17.711Z,1027.803065
2022-11-13T08:10:17.486Z,1027.854775
2022-11-13T08:15:17.475Z,1027.813615
2022-11-13T08:20:17.581Z,1027.805967
2022-11-13T08:25:17.401Z,1027.761133
2022-11-13T08:30:17.479Z,1027.675038
2022-11-13T08:35:19.436Z,1027.674637
2022-11-13T08:40:17.486Z,1027.630485
2022-11-13T08:45:17.437Z,1027.500167
2022-11-13T08:50:17.479Z,1027.384156
2022-11-13T08:55:17.397Z,1027.309880
2022-11-13T09:00:17.537Z,1027.327176
2022-11-13T09:05:17.735Z,1027.340817
2022-11-13T09:10:17.489Z,1027.336409
2022-11-13T09:15:24.177Z,1027.286079
2022-11-13T09:20:22.486Z,1027.256992
2022-11-13T09:25:17.870Z,1027.297316
2022-11-13T09:30:17.794Z,1027.312002
2022-11-13T09:35:17.635Z,1027.348064
2022-11-13T09:40:17.458Z,1027.352270
2022-11-13T09:45:17.452Z,1027.268581
2022-11-13T09:50:17.519Z,1027.224179
2022-11-13T09:55:17.420Z,1027.193181
2022-11-13T10:00:17.476Z,1027.169922
2022-11-13T10:05:17.534Z,1027.089961
2022-11-13T10:10:17.503Z,1027.051900
2022-11-13T10:15:17.529Z,1026.925842
2022-11-13T10:20:17.417Z,1026.824844
2022-11-13T10:25:17.625Z,1026.749065
2022-11-13T10:30:17.400Z,1026.629636
2022-11-13T10:35:17.524Z,1026.609698
2022-11-13T10:40:17.507Z,1026.601473
2022-11-13T10:45:17.741Z,1026.507318
2022-11-13T10:50:17.600Z,1026.397733
2022-11-13T10:55:17.419Z,1026.300974
2022-11-13T11:00:17.693Z,1026.219518
2022-11-13T11:05:17.452Z,1026.111386
2022-11-13T11:10:17.454Z,1025.990563
2022-11-13T11:15:17.353Z,1025.964261
2022-11-13T11:20:17.734Z,1025.938419
2022-11-13T11:25:17.470Z,1025.879858
2022-11-13T11:30:18.182Z,1025.709040
2022-11-13T11:35:17.546Z,1025.622728
2022-11-13T11:40:17.440Z,1025.515529
2022-11-13T11:45:17.311Z,1025.401513
2022-11-13T11:50:17.879Z,1025.349200
2022-11-13T11:55:17.685Z,1025.278162
2022-11-13T12:00:17.365Z,1025.160667
2022-11-13T12:05:20.154Z,1025.052818
2022-11-13T12:10:17.374Z,1024.940431
2022-11-13T12:15:17.361Z,1024.903451
2022-11-13T12:20:17.434Z,1024.766870
2022-11-13T12:25:17.463Z,1024.638895
2022-11-13T12:30:17.408Z,1024.467036
2022-11-13T12:35:17.341Z,1024.436643
2022-11-13T12:40:17.382Z,1024.352641
2022-11-13T12:45:17.469Z,1024.279980
2022-11-13T12:50:17.422Z,1024.180999
2022-11-13T12:55:17.396Z,1024.064928
2022-11-13T13:00:17.355Z,1024.013349
2022-11-13T13:05:17.413Z,1023.888291
2022-11-13T13:10:17.793Z,1023.832042
2022-11-13T13:15:17.365Z,1023.810425
2022-11-13T13:20:17.417Z,1023.739106
2022-11-13T13:25:17.376Z,1023.694060
2022-11-13T13:30:17.455Z,1023.638196
2022-11-13T13:35:17.395Z,1023.549347
2022-11-13T13:40:17.545Z,1023.483531
2022-11-13T13:45:22.181Z,1023.484240
2022-11-13T13:50:17.379Z,1023.460444
2022-11-13T13:55:17.904Z,1023.494025
2022-11-13T14:00:17.790Z,1023.473917
2022-11-13T14:05:17.466Z,1023.443904
2022-11-13T14:10:17.418Z,1023.396314
2022-11-13T14:15:17.407Z,1023.407955
2022-11-13T14:20:17.395Z,1023.426178
2022-11-13T14:25:17.439Z,1023.338732
2022-11-13T14:30:17.361Z,1023.295737
2022-11-13T14:35:17.414Z,1023.184510
2022-11-13T14:40:17.393Z,1023.161309
2022-11-13T14:45:17.387Z,1023.191869
2022-11-13T14:50:17.362Z,1023.232738
2022-11-13T14:55:17.351Z,1023.254470
2022-11-13T15:00:17.517Z,1023.178615
2022-11-13T15:05:17.381Z,1023.235661
2022-11-13T15:10:17.309Z,1023.197017
2022-11-13T15:15:17.250Z,1023.153638
2022-11-13T15:20:17.610Z,1023.167231
2022-11-13T15:25:17.334Z,1023.161613
2022-11-13T15:30:17.350Z,1023.127652
2022-11-13T15:35:17.358Z,1023.075350
2022-11-13T15:40:17.326Z,1023.086300
2022-11-13T15:45:17.412Z,1023.076479
2022-11-13T15:50:17.830Z,1023.130173
2022-11-13T15:55:17.469Z,1023.146286
2022-11-13T16:00:17.498Z,1023.206211
2022-11-13T16:05:17.504Z,1023.276556
2022-11-13T16:10:17.362Z,1023.298791
2022-11-13T16:15:17.358Z,1023.267386
2022-11-13T16:20:17.368Z,1023.308003
2022-11-13T16:25:17.339Z,1023.325273
2022-11-13T16:30:17.368Z,1023.315896
2022-11-13T16:35:17.297Z,1023.302690
2022-11-13T16:40:17.309Z,1023.301404
2022-11-13T16:45:17.297Z,1023.315605
2022-11-13T16:50:17.275Z,1023.303705
2022-11-13T16:55:17.325Z,1023.365513
2022-11-13T17:00:17.508Z,1023.318539
2022-11-13T17:05:17.527Z,1023.287372
2022-11-13T17:10:30.783Z,1023.256440
2022-11-13T17:15:17.519Z,1023.257729
2022-11-13T17:20:17.396Z,1023.279418
2022-11-13T17:25:17.269Z,1023.291812
2022-11-13T17:30:17.325Z,1023.299560
2022-11-13T17:35:17.330Z,1023.263309
2022-11-13T17:40:17.370Z,1023.222128
2022-11-13T17:45:17.313Z,1023.175093
2022-11-13T17:50:17.681Z,1023.142139
2022-11-13T17:55:17.797Z,1023.085602
2022-11-13T18:00:17.301Z,1023.072145
2022-11-13T18:05:17.266Z,1023.016853
2022-11-13T18:10:17.613Z,1022.982863
2022-11-13T18:15:17.587Z,1022.979838
2022-11-13T18:20:17.687Z,1022.986777
2022-11-13T18:25:17.330Z,1022.992820
2022-11-13T18:30:17.593Z,1023.015126
2022-11-13T18:35:17.599Z,1023.074399
2022-11-13T18:40:17.333Z,1023.147857
2022-11-13T18:45:17.297Z,1023.105267
2022-11-13T18:50:17.406Z,1023.149858
2022-11-13T18:55:17.265Z,1023.147861
2022-11-13T19:00:17.374Z,1023.127824
2022-11-13T19:05:17.179Z,1023.112290
2022-11-13T19:10:17.333Z,1023.055538
2022-11-13T19:15:17.209Z,1023.082706
2022-11-13T19:20:17.333Z,1023.106932
2022-11-13T19:25:17.514Z,1023.114210
2022-11-13T19:30:17.254Z,1023.109662
2022-11-13T19:35:17.243Z,1023.133402
2022-11-13T19:40:17.216Z,1023.131594
2022-11-13T19:45:17.186Z,1023.087921
2022-11-13T19:50:17.367Z,1023.110308
2022-11-13T19:55:17.736Z,1023.095458
2022-11-13T20:00:17.706Z,1023.032770
2022-11-13T20:05:17.463Z,1022.989434
2022-11-13T20:10:17.297Z,1022.938857
2022-11-13T20:15:17.189Z,1022.957793
2022-11-13T20:20:17.893Z,1022.849896
2022-11-13T20:25:17.287Z,1022.837771
2022-11-13T20:30:17.279Z,1022.803478
2022-11-13T20:35:17.355Z,1022.805952
2022-11-13T20:40:17.258Z,1022.758608
2022-11-13T20:45:17.211Z,1022.724220
2022-11-13T20:50:17.285Z,1022.628735
2022-11-13T20:55:17.351Z,1022.573916
2022-11-13T21:00:17.265Z,1022.598080
2022-11-13T21:05:17.260Z,1022.646297
2022-11-13T21:10:17.405Z,1022.589184
2022-11-13T21:15:17.270Z,1022.502773
2022-11-13T21:20:17.230Z,1022.471961
2022-11-13T21:25:17.334Z,1022.456561
2022-11-13T21:30:17.223Z,1022.460924
2022-11-13T21:35:22.309Z,1022.380801
2022-11-13T21:40:17.229Z,1022.343930
2022-11-13T21:47:59.044Z,1022.332822
2022-11-13T21:50:20.056Z,1022.353262
2022-11-13T21:55:19.968Z,1022.325475
2022-11-13T22:00:19.979Z,1022.274964
2022-11-13T22:05:20.287Z,1022.196143
2022-11-13T22:10:20.095Z,1022.220649
2022-11-13T22:15:19.666Z,1022.159597
2022-11-13T22:20:19.833Z,1022.127272
2022-11-13T22:25:19.760Z,1022.140758
2022-11-13T22:30:19.761Z,1022.131480
2022-11-13T22:35:19.749Z,1022.119064
2022-11-13T22:40:19.910Z,1022.078277
2022-11-13T22:45:23.848Z,1022.011603
2022-11-13T22:50:19.630Z,1021.990029
2022-11-13T22:55:19.914Z,1021.962266
2022-11-13T23:00:19.984Z,1021.869696
2022-11-13T23:05:19.801Z,1021.771728
2022-11-13T23:10:19.645Z,1021.733476
2022-11-13T23:15:19.649Z,1021.661123
2022-11-13T23:20:19.628Z,1021.575929
2022-11-13T23:25:17.269Z,1021.479154
2022-11-13T23:30:17.326Z,1021.347566
2022-11-13T23:35:17.234Z,1021.234303
2022-11-13T23:40:17.365Z,1021.238475
2022-11-13T23:45:17.569Z,1021.251917
2022-11-13T23:50:17.403Z,1021.229056
2022-11-13T23:55:17.335Z,1021.178580
